Time;durP1;ratioP1;P1;durP2;ratioP2;P2;SDS_P1;SDS_P2;PMS_P1;PMS_P2;Temp;Humidity;BMP_temperature;BMP_pressure;BME280_temperature;BME280_humidity;BME280_pressure;Samples;Min_cycle;Max_cycle;Signal;HPM_P1;HPM_P2
2023/08/23 00:01:12;;;;;;;;;;;;;;;25.62;58.06;100882.28;7399404;19;1507;-60
2023/08/23 00:03:40;;;;;;;;;;;;;;;25.68;57.92;100888.88;7400481;19;1523;-60
2023/08/23 00:06:08;;;;;;;;;;;;;;;25.66;57.54;100894.44;7398997;19;1242;-60
2023/08/23 00:08:39;;;;;;;;;;;;;;;25.67;56.45;100882.63;7400730;19;1247;-60
2023/08/23 00:11:07;;;;;;;;;;;;;;;25.63;56.61;100896.69;7399027;19;1487;-60
2023/08/23 00:13:35;;;;;;;;;;;;;;;25.62;57.50;100885.00;7399425;19;1225;-60
2023/08/23 00:16:04;;;;;;;;;;;;;;;25.64;58.11;100892.94;7398855;19;1266;-60
2023/08/23 00:18:32;;;;;;;;;;;;;;;25.67;58.25;100888.03;7399152;19;1852;-60
2023/08/23 00:21:00;;;;;;;;;;;;;;;25.71;57.87;100899.34;7399028;19;1242;-60
2023/08/23 00:23:28;;;;;;;;;;;;;;;25.69;57.91;100880.56;7400790;19;1586;-60
2023/08/23 00:25:59;;;;;;;;;;;;;;;25.65;57.70;100884.66;7407593;19;1171;-60
2023/08/23 00:28:28;;;;;;;;;;;;;;;25.67;58.00;100900.72;7413549;19;1346;-60
2023/08/23 00:30:56;;;;;;;;;;;;;;;25.69;56.74;100891.41;7401405;19;1234;-60
2023/08/23 00:33:24;;;;;;;;;;;;;;;25.72;57.13;100896.44;7398778;19;1460;-60
2023/08/23 00:35:53;;;;;;;;;;;;;;;25.71;56.82;100899.34;7399181;19;1206;-60
2023/08/23 00:38:21;;;;;;;;;;;;;;;25.70;56.18;100898.50;7398982;19;1849;-60
2023/08/23 00:40:49;;;;;;;;;;;;;;;25.72;56.01;100907.28;7398524;19;1337;-60
2023/08/23 00:43:20;;;;;;;;;;;;;;;25.74;56.76;100888.97;7398986;19;1543;-60
2023/08/23 00:45:48;;;;;;;;;;;;;;;25.63;57.19;100894.81;7399007;19;1498;-60
2023/08/23 00:48:17;;;;;;;;;;;;;;;25.65;56.31;100895.47;7398226;19;1341;-60
2023/08/23 00:50:46;;;;;;;;;;;;;;;25.64;55.87;100882.94;7398184;19;1559;-60
2023/08/23 00:53:16;;;;;;;;;;;;;;;25.68;55.68;100888.88;7397088;19;1479;-60
2023/08/23 00:55:45;;;;;;;;;;;;;;;25.68;55.38;100895.13;7399723;19;1259;-60
2023/08/23 00:58:13;;;;;;;;;;;;;;;25.66;55.53;100886.31;7395131;19;1583;-60
2023/08/23 01:00:44;;;;;;;;;;;;;;;25.61;56.35;100883.31;7395781;19;1838;-60
2023/08/23 01:03:12;;;;;;;;;;;;;;;25.69;55.52;100895.97;7398463;19;1401;-60
2023/08/23 01:05:46;;;;;;;;;;;;;;;25.62;55.62;100876.88;7397640;19;1409;-60
2023/08/23 01:08:18;;;;;;;;;;;;;;;25.62;55.73;100901.25;7397834;19;1345;-60
2023/08/23 01:10:49;;;;;;;;;;;;;;;25.62;55.58;100903.13;7397404;19;1574;-60
2023/08/23 01:13:19;;;;;;;;;;;;;;;25.60;55.86;100892.44;7397603;19;1438;-60
2023/08/23 01:15:51;;;;;;;;;;;;;;;25.57;55.87;100888.25;7398354;19;1269;-60
2023/08/23 01:18:19;;;;;;;;;;;;;;;25.63;55.34;100893.97;7397221;19;1560;-60
2023/08/23 01:20:51;;;;;;;;;;;;;;;25.58;55.39;100895.31;7396321;19;1868;-60
2023/08/23 01:23:22;;;;;;;;;;;;;;;25.57;55.34;100892.81;7397019;19;1176;-60
2023/08/23 01:25:51;;;;;;;;;;;;;;;25.57;55.45;100892.81;7396632;19;1377;-60
2023/08/23 01:28:19;;;;;;;;;;;;;;;25.63;55.92;100902.94;7406990;19;1405;-60
2023/08/23 01:30:48;;;;;;;;;;;;;;;25.56;55.47;100893.81;7410129;19;1453;-60
2023/08/23 01:33:21;;;;;;;;;;;;;;;25.58;55.50;100899.91;7397270;19;1244;-60
2023/08/23 01:35:53;;;;;;;;;;;;;;;25.68;55.37;100910.53;7396634;19;1459;-60
2023/08/23 01:38:25;;;;;;;;;;;;;;;25.62;55.51;100906.66;7396925;19;1468;-60
2023/08/23 01:40:55;;;;;;;;;;;;;;;25.61;55.81;100905.00;7395313;19;1838;-60
2023/08/23 01:43:24;;;;;;;;;;;;;;;25.67;56.91;100900.72;7396358;19;1477;-60
2023/08/23 01:45:52;;;;;;;;;;;;;;;25.59;56.15;100902.44;7396937;19;1400;-60
2023/08/23 01:48:20;;;;;;;;;;;;;;;25.59;55.82;100909.72;7394885;19;1497;-60
2023/08/23 01:50:48;;;;;;;;;;;;;;;25.64;56.19;100903.78;7396345;19;1191;-60
2023/08/23 01:53:16;;;;;;;;;;;;;;;25.60;55.76;100914.13;7396320;19;1408;-60
2023/08/23 01:55:47;;;;;;;;;;;;;;;25.62;55.43;100903.13;7394995;19;1511;-60
2023/08/23 01:58:16;;;;;;;;;;;;;;;25.60;55.20;100906.84;7394966;19;1326;-60
2023/08/23 02:00:48;;;;;;;;;;;;;;;25.59;55.20;100913.28;7392871;19;1855;-60
2023/08/23 02:03:16;;;;;;;;;;;;;;;25.64;55.16;100920.03;7395678;19;1238;-60
2023/08/23 02:05:44;;;;;;;;;;;;;;;25.62;55.20;100905.81;7395326;19;1377;-60
2023/08/23 02:08:13;;;;;;;;;;;;;;;25.60;55.18;100908.69;7395367;19;1364;-60
2023/08/23 02:10:41;;;;;;;;;;;;;;;25.63;55.16;100908.38;7400790;19;1287;-59
2023/08/23 02:13:12;;;;;;;;;;;;;;;25.58;55.08;100906.16;7402665;19;1223;-60
2023/08/23 02:15:40;;;;;;;;;;;;;;;25.55;55.26;100889.44;7402914;19;1261;-60
2023/08/23 02:18:08;;;;;;;;;;;;;;;25.54;55.36;100904.00;7403234;19;1509;-60
2023/08/23 02:20:37;;;;;;;;;;;;;;;25.56;55.22;100894.66;7401383;19;1847;-60
2023/08/23 02:23:05;;;;;;;;;;;;;;;25.56;55.13;100905.50;7403325;19;1186;-60
2023/08/23 02:25:33;;;;;;;;;;;;;;;25.57;54.88;100898.22;7402752;19;1784;-60
2023/08/23 02:28:01;;;;;;;;;;;;;;;25.57;54.79;100898.22;7402549;19;1571;-60
2023/08/23 02:30:32;;;;;;;;;;;;;;;25.58;54.51;100899.91;7412129;19;1172;-60
2023/08/23 02:33:01;;;;;;;;;;;;;;;25.55;54.83;100903.81;7416660;19;1543;-60
2023/08/23 02:35:29;;;;;;;;;;;;;;;25.63;54.71;100908.38;7404198;19;1420;-60
2023/08/23 02:37:54;;;;;;;;;;;;;;;25.55;54.54;100889.44;7402973;19;1481;-60
2023/08/23 02:40:23;;;;;;;;;;;;;;;25.63;54.67;100904.81;7400346;19;1880;-60
2023/08/23 02:42:55;;;;;;;;;;;;;;;25.57;54.95;100892.81;7402553;19;1550;-60
2023/08/23 02:45:23;;;;;;;;;;;;;;;25.59;54.92;100896.19;7402757;19;1563;-60
2023/08/23 02:47:54;;;;;;;;;;;;;;;25.65;54.42;100903.63;7402138;19;1183;-60
2023/08/23 02:50:22;;;;;;;;;;;;;;;25.67;54.48;100893.44;7401958;19;1470;-60
2023/08/23 02:52:50;;;;;;;;;;;;;;;25.58;54.82;100894.50;7402111;19;1408;-60
2023/08/23 02:55:19;;;;;;;;;;;;;;;25.58;54.83;100897.19;7401690;19;1610;-60
2023/08/23 02:57:47;;;;;;;;;;;;;;;25.60;54.63;100904.16;7402187;19;1373;-60
2023/08/23 03:00:16;;;;;;;;;;;;;;;25.64;54.51;100896.50;7399208;19;1848;-60
2023/08/23 03:02:44;;;;;;;;;;;;;;;25.71;54.39;100916.44;7401666;19;1462;-60
2023/08/23 03:05:15;;;;;;;;;;;;;;;25.61;54.60;100907.69;7400723;19;1436;-60
2023/08/23 03:07:43;;;;;;;;;;;;;;;25.60;54.68;100908.69;7401361;19;1332;-60
2023/08/23 03:10:12;;;;;;;;;;;;;;;25.55;54.77;100903.81;7400273;19;1172;-60
2023/08/23 03:12:40;;;;;;;;;;;;;;;25.62;54.60;100912.06;7400486;19;1170;-60
2023/08/23 03:15:09;;;;;;;;;;;;;;;25.64;54.71;100909.19;7401475;19;1167;-62
2023/08/23 03:17:38;;;;;;;;;;;;;;;25.59;54.87;100913.28;7402247;19;1263;-60
2023/08/23 03:20:07;;;;;;;;;;;;;;;25.62;54.70;100917.50;7399048;19;1848;-60
2023/08/23 03:22:38;;;;;;;;;;;;;;;25.64;54.90;100915.44;7400084;19;1258;-60
2023/08/23 03:25:06;;;;;;;;;;;;;;;25.68;54.69;100905.94;7400417;19;1179;-60
2023/08/23 03:27:34;;;;;;;;;;;;;;;25.66;54.71;100912.56;7399385;19;1234;-60
2023/08/23 03:30:03;;;;;;;;;;;;;;;25.63;54.75;100912.94;7402030;19;1939;-60
2023/08/23 03:32:31;;;;;;;;;;;;;;;25.57;54.84;100936.16;7408332;19;1570;-60
2023/08/23 03:34:59;;;;;;;;;;;;;;;25.57;54.66;100906.34;7415325;19;1156;-60
2023/08/23 03:37:28;;;;;;;;;;;;;;;25.58;54.46;100914.28;7401441;19;1441;-60
2023/08/23 03:39:58;;;;;;;;;;;;;;;25.55;54.70;100922.78;7399912;19;1858;-60
2023/08/23 03:42:27;;;;;;;;;;;;;;;25.43;55.68;100913.34;7400889;19;1313;-59
2023/08/23 03:44:56;;;;;;;;;;;;;;;25.48;56.36;100910.09;7399624;19;1358;-60
2023/08/23 03:47:24;;;;;;;;;;;;;;;25.62;55.58;100911.25;7399703;19;1492;-60
2023/08/23 03:49:52;;;;;;;;;;;;;;;25.73;56.68;100911.69;7395587;19;1259;-59
2023/08/23 03:52:20;;;;;;;;;;;;;;;25.47;57.61;100903.03;7400193;19;1167;-59
2023/08/23 03:54:49;;;;;;;;;;;;;;;25.48;59.18;100905.53;7397084;19;1598;-60
2023/08/23 03:57:19;;;;;;;;;;;;;;;25.64;58.64;100901.91;7398920;19;1508;-59
2023/08/23 03:59:48;;;;;;;;;;;;;;;25.65;58.94;100895.47;7399072;19;1845;-60
2023/08/23 04:02:16;;;;;;;;;;;;;;;25.70;58.62;100903.91;7399757;19;1421;-60
2023/08/23 04:04:44;;;;;;;;;;;;;;;25.64;58.93;100907.31;7399541;19;1392;-66
2023/08/23 04:07:14;;;;;;;;;;;;;;;25.67;58.79;100901.56;7398006;19;1279;-67
2023/08/23 04:09:43;;;;;;;;;;;;;;;25.73;58.54;100909.00;7398451;19;1179;-73
2023/08/23 04:12:11;;;;;;;;;;;;;;;25.80;58.66;100909.13;7399633;19;1249;-70
2023/08/23 04:14:42;;;;;;;;;;;;;;;25.82;58.62;100903.53;7401036;19;1498;-72
2023/08/23 04:17:10;;;;;;;;;;;;;;;25.99;58.31;100914.13;7397677;19;1889;-71
2023/08/23 04:19:38;;;;;;;;;;;;;;;26.21;57.62;100925.16;7399167;19;1841;-71
2023/08/23 04:22:07;;;;;;;;;;;;;;;26.46;56.94;100904.16;7400037;19;1487;-70
2023/08/23 04:24:35;;;;;;;;;;;;;;;27.01;55.53;100904.03;7398816;19;1479;-66
2023/08/23 04:27:03;;;;;;;;;;;;;;;27.73;53.52;100912.34;7397100;19;1480;-72
2023/08/23 04:29:32;;;;;;;;;;;;;;;27.98;52.87;100909.34;7395541;19;1385;-68
2023/08/23 04:32:03;;;;;;;;;;;;;;;27.97;52.80;100907.66;7397772;19;1186;-68
2023/08/23 04:34:31;;;;;;;;;;;;;;;27.93;52.46;100918.09;7401310;19;1599;-71
2023/08/23 04:36:59;;;;;;;;;;;;;;;27.01;54.39;100917.59;7401195;19;1207;-70
2023/08/23 04:39:28;;;;;;;;;;;;;;;26.58;54.78;100919.00;7398733;19;1180;-66
2023/08/23 04:41:56;;;;;;;;;;;;;;;26.51;55.43;100919.88;7393778;19;1847;-64
2023/08/23 04:44:26;;;;;;;;;;;;;;;26.36;54.92;100919.81;7394874;19;1551;-67
2023/08/23 04:46:55;;;;;;;;;;;;;;;26.22;54.79;100920.59;7399743;19;1088;-66
2023/08/23 04:49:25;;;;;;;;;;;;;;;26.11;54.56;100927.28;7398680;19;1579;-67
2023/08/23 04:51:54;;;;;;;;;;;;;;;25.93;54.63;100931.09;7397954;19;1456;-66
2023/08/23 04:54:23;;;;;;;;;;;;;;;25.86;54.95;100921.09;7395657;19;1742;-65
2023/08/23 04:56:51;;;;;;;;;;;;;;;25.75;55.01;100916.94;7394748;19;1167;-65
2023/08/23 04:59:19;;;;;;;;;;;;;;;25.70;55.19;100919.31;7396048;19;1223;-68
2023/08/23 05:01:47;;;;;;;;;;;;;;;25.65;55.49;100914.44;7392719;19;1841;-61
2023/08/23 05:04:16;;;;;;;;;;;;;;;25.62;55.31;100903.94;7392067;19;1581;-60
2023/08/23 05:06:46;;;;;;;;;;;;;;;25.51;55.53;100917.91;7391714;19;1507;-62
2023/08/23 05:09:15;;;;;;;;;;;;;;;25.27;56.92;100911.53;7388667;19;1170;-60
2023/08/23 05:11:43;;;;;;;;;;;;;;;25.02;56.29;100930.47;7391838;19;1525;-59
2023/08/23 05:14:11;;;;;;;;;;;;;;;24.75;56.75;100930.84;7392230;19;1336;-60
2023/08/23 05:16:40;;;;;;;;;;;;;;;24.61;56.71;100935.94;7390607;19;1563;-60
2023/08/23 05:19:08;;;;;;;;;;;;;;;24.59;56.71;100940.66;7390403;19;1552;-59
2023/08/23 05:21:36;;;;;;;;;;;;;;;24.54;58.18;100926.81;7391014;19;1837;-59
2023/08/23 05:24:07;;;;;;;;;;;;;;;24.49;58.83;100930.97;7391872;19;1503;-59
2023/08/23 05:26:35;;;;;;;;;;;;;;;24.42;59.20;100933.53;7390531;19;1843;-59
2023/08/23 05:29:04;;;;;;;;;;;;;;;24.45;58.92;100926.94;7390786;19;1144;-58
2023/08/23 05:31:32;;;;;;;;;;;;;;;24.42;58.27;100920.84;7391047;19;1242;-58
2023/08/23 05:34:00;;;;;;;;;;;;;;;24.39;58.78;100914.91;7388768;19;1235;-59
2023/08/23 05:36:29;;;;;;;;;;;;;;;24.28;59.18;100920.69;7389992;19;1176;-59
2023/08/23 05:38:58;;;;;;;;;;;;;;;24.25;59.05;100923.69;7391795;19;1278;-59
2023/08/23 05:41:29;;;;;;;;;;;;;;;24.32;58.12;100906.66;7389956;19;1859;-59
2023/08/23 05:43:57;;;;;;;;;;;;;;;24.31;58.18;100928.44;7390687;19;1739;-59
2023/08/23 05:46:25;;;;;;;;;;;;;;;24.20;58.54;100930.44;7389200;19;1595;-58
2023/08/23 05:48:53;;;;;;;;;;;;;;;24.22;57.79;100923.00;7389660;19;1162;-59
2023/08/23 05:51:22;;;;;;;;;;;;;;;24.18;57.92;100931.63;7388237;19;1491;-59
2023/08/23 05:53:51;;;;;;;;;;;;;;;24.05;58.40;100924.00;7388923;19;1390;-59
2023/08/23 05:56:19;;;;;;;;;;;;;;;24.10;57.54;100921.66;7389921;19;1177;-59
2023/08/23 05:58:50;;;;;;;;;;;;;;;24.12;57.73;100933.13;7391192;19;1482;-58
2023/08/23 06:01:19;;;;;;;;;;;;;;;24.06;58.31;100924.84;7387428;19;1881;-59
2023/08/23 06:03:49;;;;;;;;;;;;;;;24.03;58.78;100909.81;7391202;19;1432;-58
2023/08/23 06:06:20;;;;;;;;;;;;;;;24.05;59.22;100925.84;7388831;19;1570;-58
2023/08/23 06:08:48;;;;;;;;;;;;;;;24.05;59.61;100917.75;7388787;19;1195;-59
2023/08/23 06:11:16;;;;;;;;;;;;;;;24.05;59.99;100925.84;7389226;19;1690;-58
2023/08/23 06:13:45;;;;;;;;;;;;;;;24.06;60.13;100924.84;7389950;19;1769;-59
2023/08/23 06:16:15;;;;;;;;;;;;;;;24.08;60.50;100929.06;7389644;19;1867;-58
2023/08/23 06:18:44;;;;;;;;;;;;;;;24.06;60.68;100931.09;7389421;19;1765;-58
2023/08/23 06:21:12;;;;;;;;;;;;;;;24.09;60.58;100933.44;7388519;19;1865;-58
2023/08/23 06:23:43;;;;;;;;;;;;;;;24.08;61.17;100934.47;7389109;19;1437;-59
2023/08/23 06:26:11;;;;;;;;;;;;;;;24.13;61.27;100948.34;7388616;19;1812;-59
2023/08/23 06:28:40;;;;;;;;;;;;;;;24.12;61.17;100933.13;7390241;19;1377;-59
2023/08/23 06:31:08;;;;;;;;;;;;;;;24.09;61.45;100938.84;7391126;19;961;-59
2023/08/23 06:33:39;;;;;;;;;;;;;;;24.09;61.57;100919.94;7386559;19;1430;-58
2023/08/23 06:36:09;;;;;;;;;;;;;;;24.03;61.36;100928.72;7390540;19;1409;-59
2023/08/23 06:38:37;;;;;;;;;;;;;;;24.07;61.14;100932.78;7386147;19;1453;-58
2023/08/23 06:41:05;;;;;;;;;;;;;;;24.01;61.26;100914.53;7388821;19;1857;-58
2023/08/23 06:43:33;;;;;;;;;;;;;;;24.09;61.00;100929.91;7390111;19;1507;-60
2023/08/23 06:46:02;;;;;;;;;;;;;;;24.09;61.04;100930.75;7389349;19;1542;-58
2023/08/23 06:48:30;;;;;;;;;;;;;;;23.98;61.47;100931.06;7390000;19;1672;-59
2023/08/23 06:51:03;;;;;;;;;;;;;;;24.11;61.61;100939.53;7391947;19;1495;-60
2023/08/23 06:53:31;;;;;;;;;;;;;;;24.02;61.83;100935.97;7387389;19;1924;-61
2023/08/23 06:55:59;;;;;;;;;;;;;;;24.02;61.35;100935.13;7391822;19;1165;-61
2023/08/23 06:58:28;;;;;;;;;;;;;;;23.94;61.83;100922.44;7397991;19;1425;-61
2023/08/23 07:00:57;;;;;;;;;;;;;;;23.97;61.47;100927.53;7398082;19;1863;-61
2023/08/23 07:03:26;;;;;;;;;;;;;;;23.96;61.29;100930.41;7396933;19;1606;-61
2023/08/23 07:05:54;;;;;;;;;;;;;;;23.63;61.10;100865.44;7397286;19;1437;-62
2023/08/23 07:08:25;;;;;;;;;;;;;;;24.03;61.55;100926.00;7396250;19;1271;-60
2023/08/23 07:10:53;;;;;;;;;;;;;;;24.03;61.93;100931.41;7396983;19;1671;-61
2023/08/23 07:13:21;;;;;;;;;;;;;;;24.04;61.82;100922.31;7395123;19;1409;-61
2023/08/23 07:15:50;;;;;;;;;;;;;;;24.05;61.92;100931.25;7396876;19;1484;-60
2023/08/23 07:18:18;;;;;;;;;;;;;;;23.88;62.17;100919.56;7396850;19;1471;-61
2023/08/23 07:20:47;;;;;;;;;;;;;;;23.97;61.42;100915.88;7394487;19;1876;-62
2023/08/23 07:23:15;;;;;;;;;;;;;;;23.92;61.96;100918.22;7394470;19;1463;-61
2023/08/23 07:25:46;;;;;;;;;;;;;;;23.87;62.02;100921.41;7395154;19;1203;-61
2023/08/23 07:28:14;;;;;;;;;;;;;;;23.82;61.59;100916.50;7396607;19;1652;-61
2023/08/23 07:30:46;;;;;;;;;;;;;;;23.80;62.48;100915.00;7396119;19;1871;-61
2023/08/23 07:33:15;;;;;;;;;;;;;;;23.96;62.37;100919.59;7393844;19;1517;-61
2023/08/23 07:35:43;;;;;;;;;;;;;;;23.99;62.32;100925.53;7396003;19;1448;-62
2023/08/23 07:38:11;;;;;;;;;;;;;;;23.92;61.89;100912.84;7396682;19;1441;-61
2023/08/23 07:40:40;;;;;;;;;;;;;;;23.88;61.94;100916.88;7394289;19;1467;-61
2023/08/23 07:43:11;;;;;;;;;;;;;;;23.89;62.37;100907.75;7393752;19;1472;-61
2023/08/23 07:45:39;;;;;;;;;;;;;;;23.73;62.74;100912.03;7394328;19;1472;-61
2023/08/23 07:48:08;;;;;;;;;;;;;;;23.66;62.77;100910.19;7393464;19;1500;-61
2023/08/23 07:50:37;;;;;;;;;;;;;;;23.83;62.45;100898.44;7401457;19;1514;-61
2023/08/23 07:53:05;;;;;;;;;;;;;;;23.81;61.99;100905.84;7397921;19;1367;-61
2023/08/23 07:55:34;;;;;;;;;;;;;;;23.85;62.21;100900.97;7396307;19;1734;-61
2023/08/23 07:58:02;;;;;;;;;;;;;;;23.78;62.93;100903.50;7395023;19;1679;-61
2023/08/23 08:00:33;;;;;;;;;;;;;;;23.77;62.64;100891.84;7394329;19;1747;-61
2023/08/23 08:03:02;;;;;;;;;;;;;;;23.65;62.91;100887.72;7392021;19;1853;-61
2023/08/23 08:05:30;;;;;;;;;;;;;;;23.88;62.29;100893.41;7395540;19;1924;-61
2023/08/23 08:07:59;;;;;;;;;;;;;;;23.77;62.30;100897.22;7395172;19;1437;-61
2023/08/23 08:10:27;;;;;;;;;;;;;;;23.69;62.69;100889.06;7395741;19;1867;-61
2023/08/23 08:12:55;;;;;;;;;;;;;;;23.81;62.71;100890.53;7392385;19;1432;-60
2023/08/23 08:15:24;;;;;;;;;;;;;;;23.74;62.48;100883.22;7395107;19;1619;-60
2023/08/23 08:17:55;;;;;;;;;;;;;;;23.75;62.63;100877.63;7394254;19;1675;-60
2023/08/23 08:20:24;;;;;;;;;;;;;;;23.80;62.17;100869.91;7395235;19;1788;-60
2023/08/23 08:22:53;;;;;;;;;;;;;;;23.73;62.39;100885.03;7391879;19;1840;-60
2023/08/23 08:25:21;;;;;;;;;;;;;;;23.70;63.17;100871.88;7393193;19;1484;-60
2023/08/23 08:27:50;;;;;;;;;;;;;;;23.76;63.29;100876.63;7393209;19;1800;-60
2023/08/23 08:30:18;;;;;;;;;;;;;;;23.83;62.37;100871.44;7395500;19;1393;-60
2023/08/23 08:32:46;;;;;;;;;;;;;;;23.76;62.53;100865.81;7393355;19;1731;-61
2023/08/23 08:35:17;;;;;;;;;;;;;;;23.75;63.04;100874.91;7393590;19;1396;-60
2023/08/23 08:37:46;;;;;;;;;;;;;;;23.67;63.48;100877.59;7391722;19;1369;-60
2023/08/23 08:40:14;;;;;;;;;;;;;;;23.60;63.41;100863.09;7391975;19;1777;-60
2023/08/23 08:42:43;;;;;;;;;;;;;;;23.67;63.41;100864.09;7391655;19;1842;-60
2023/08/23 08:45:11;;;;;;;;;;;;;;;23.73;62.93;100873.41;7394556;19;1026;-60
2023/08/23 08:47:41;;;;;;;;;;;;;;;23.72;62.40;100877.97;7391540;19;1774;-60
2023/08/23 08:50:10;;;;;;;;;;;;;;;23.65;63.23;100868.81;7392692;19;1350;-61
2023/08/23 08:52:42;;;;;;;;;;;;;;;23.63;62.95;100866.31;7396697;19;1463;-60
2023/08/23 08:55:13;;;;;;;;;;;;;;;23.56;62.90;100859.84;7395867;19;1762;-60
2023/08/23 08:57:42;;;;;;;;;;;;;;;23.67;63.21;100852.47;7392715;19;1841;-60
2023/08/23 09:00:11;;;;;;;;;;;;;;;23.75;63.45;100864.13;7391720;19;1525;-61
2023/08/23 09:02:40;;;;;;;;;;;;;;;23.64;63.07;100861.75;7391871;19;1864;-62
2023/08/23 09:05:09;;;;;;;;;;;;;;;23.68;64.24;100844.22;7391484;19;1453;-62
2023/08/23 09:07:41;;;;;;;;;;;;;;;23.68;65.23;100865.81;7392250;19;1219;-62
2023/08/23 09:10:10;;;;;;;;;;;;;;;23.63;64.74;100857.34;7391331;19;1335;-61
2023/08/23 09:12:38;;;;;;;;;;;;;;;23.64;64.68;100856.34;7391811;19;1152;-61
2023/08/23 09:15:07;;;;;;;;;;;;;;;23.90;64.41;100836.53;7391232;19;1124;-62
2023/08/23 09:17:35;;;;;;;;;;;;;;;24.01;64.34;100833.47;7391752;19;1819;-63
2023/08/23 09:20:06;;;;;;;;;;;;;;;23.96;64.51;100833.16;7388567;19;1781;-62
2023/08/23 09:22:35;;;;;;;;;;;;;;;23.88;64.63;100838.56;7391016;19;1855;-62
2023/08/23 09:25:08;;;;;;;;;;;;;;;23.97;63.97;100826.72;7392631;19;1255;-63
2023/08/23 09:27:36;;;;;;;;;;;;;;;23.89;64.31;100838.38;7388085;19;1380;-62
2023/08/23 09:30:06;;;;;;;;;;;;;;;24.00;64.11;100832.66;7390650;19;1658;-62
2023/08/23 09:32:34;;;;;;;;;;;;;;;24.10;64.08;100827.09;7392042;19;1689;-62
2023/08/23 09:35:11;;;;;;;;;;;;;;;24.04;64.37;100819.66;7392231;19;1690;-63
2023/08/23 09:37:41;;;;;;;;;;;;;;;24.06;64.01;100828.44;7393097;19;1167;-63
2023/08/23 09:40:20;;;;;;;;;;;;;;;23.96;64.06;100809.69;7393110;19;1353;-62
2023/08/23 09:42:48;;;;;;;;;;;;;;;24.07;64.02;100807.66;7390282;19;1868;-62
2023/08/23 09:45:18;;;;;;;;;;;;;;;24.01;64.05;100795.66;7390538;19;1500;-62
2023/08/23 09:47:51;;;;;;;;;;;;;;;24.08;64.15;100803.97;7390101;19;1437;-62
2023/08/23 09:50:20;;;;;;;;;;;;;;;23.98;64.15;100786.06;7392128;19;1543;-62
2023/08/23 09:52:52;;;;;;;;;;;;;;;23.92;64.07;100802.94;7392168;19;1709;-63
2023/08/23 09:55:24;;;;;;;;;;;;;;;24.07;63.22;100792.28;7392991;19;969;-62
2023/08/23 09:57:53;;;;;;;;;;;;;;;24.11;63.67;100790.09;7389336;19;1524;-62
2023/08/23 10:00:23;;;;;;;;;;;;;;;24.05;63.83;100783.50;7401524;19;1745;-62
2023/08/23 10:02:51;;;;;;;;;;;;;;;24.08;63.87;100788.59;7397666;19;1869;-62
2023/08/23 10:05:20;;;;;;;;;;;;;;;24.09;63.98;100787.56;7390255;19;1775;-62
2023/08/23 10:07:49;;;;;;;;;;;;;;;23.93;64.05;100779.47;7391953;19;1225;-62
2023/08/23 10:10:17;;;;;;;;;;;;;;;24.03;63.41;100782.84;7389878;19;1169;-62
2023/08/23 10:12:49;;;;;;;;;;;;;;;24.05;63.91;100783.50;7389994;19;1194;-62
2023/08/23 10:15:18;;;;;;;;;;;;;;;24.08;64.08;100772.38;7390335;19;1610;-62
2023/08/23 10:17:48;;;;;;;;;;;;;;;24.15;63.75;100777.94;7391589;19;1242;-62
2023/08/23 10:20:17;;;;;;;;;;;;;;;24.12;64.18;100759.38;7391899;19;1452;-62
2023/08/23 10:22:46;;;;;;;;;;;;;;;24.10;63.85;100780.31;7389023;19;1841;-62
2023/08/23 10:25:18;;;;;;;;;;;;;;;24.15;63.77;100778.81;7388538;19;1512;-62
2023/08/23 10:27:51;;;;;;;;;;;;;;;24.10;63.39;100774.91;7387927;19;1377;-62
2023/08/23 10:30:24;;;;;;;;;;;;;;;23.96;63.82;100776.44;7392241;19;1015;-62
2023/08/23 10:32:52;;;;;;;;;;;;;;;24.12;63.33;100767.50;7398126;19;1805;-62
2023/08/23 10:35:24;;;;;;;;;;;;;;;24.08;63.47;100772.38;7397254;19;1769;-62
2023/08/23 10:37:54;;;;;;;;;;;;;;;23.83;63.76;100768.81;7399533;19;1558;-61
2023/08/23 10:40:23;;;;;;;;;;;;;;;23.91;63.58;100771.50;7402049;19;1677;-65
2023/08/23 10:42:54;;;;;;;;;;;;;;;24.05;63.98;100764.59;7400600;19;1874;-62
2023/08/23 10:45:22;;;;;;;;;;;;;;;23.91;63.93;100770.69;7401730;19;1590;-60
2023/08/23 10:47:52;;;;;;;;;;;;;;;23.88;63.50;100771.03;7402017;19;1615;-61
2023/08/23 10:50:21;;;;;;;;;;;;;;;23.58;64.79;100766.06;7401641;19;1488;-60
2023/08/23 10:52:50;;;;;;;;;;;;;;;23.64;64.35;100769.97;7401885;19;1905;-61
2023/08/23 10:55:18;;;;;;;;;;;;;;;23.70;64.61;100754.94;7403647;19;1269;-61
2023/08/23 10:57:46;;;;;;;;;;;;;;;23.75;64.20;100766.91;7402432;19;1264;-61
2023/08/23 11:00:18;;;;;;;;;;;;;;;23.84;63.94;100742.69;7403200;19;1315;-61
2023/08/23 11:02:46;;;;;;;;;;;;;;;23.82;63.73;100749.06;7403060;19;1853;-61
2023/08/23 11:05:15;;;;;;;;;;;;;;;23.86;64.27;100737.94;7402612;19;1291;-61
2023/08/23 11:07:43;;;;;;;;;;;;;;;23.96;63.72;100725.97;7402178;19;1319;-61
2023/08/23 11:10:12;;;;;;;;;;;;;;;23.81;64.88;100727.63;7402879;19;1333;-60
2023/08/23 11:12:41;;;;;;;;;;;;;;;23.85;64.53;100747.06;7403399;19;1475;-63
2023/08/23 11:15:10;;;;;;;;;;;;;;;23.94;64.35;100724.44;7402576;19;1229;-63
2023/08/23 11:17:40;;;;;;;;;;;;;;;24.13;63.91;100710.59;7401188;19;1473;-62
2023/08/23 11:20:10;;;;;;;;;;;;;;;24.06;63.84;100720.38;7402425;19;1859;-63
2023/08/23 11:22:39;;;;;;;;;;;;;;;24.01;64.29;100695.72;7398452;19;1845;-68
2023/08/23 11:25:07;;;;;;;;;;;;;;;23.97;65.37;100697.94;7400194;19;1290;-68
2023/08/23 11:27:36;;;;;;;;;;;;;;;23.98;64.98;100699.63;7401121;19;1481;-68
2023/08/23 11:30:05;;;;;;;;;;;;;;;23.96;64.39;100677.34;7401567;19;1530;-68
2023/08/23 11:32:33;;;;;;;;;;;;;;;23.96;65.92;100676.50;7401794;19;1210;-68
2023/08/23 11:35:05;;;;;;;;;;;;;;;23.95;66.13;100685.59;7399899;19;1367;-68
2023/08/23 11:37:33;;;;;;;;;;;;;;;23.92;66.50;100685.97;7401837;19;1468;-63
2023/08/23 11:40:07;;;;;;;;;;;;;;;24.08;65.38;100680.53;7398886;19;1167;-61
2023/08/23 11:42:36;;;;;;;;;;;;;;;23.90;65.64;100671.78;7398511;19;1850;-67
2023/08/23 11:45:05;;;;;;;;;;;;;;;23.97;65.24;100687.13;7395994;19;1444;-62
2023/08/23 11:47:33;;;;;;;;;;;;;;;24.11;64.39;100674.75;7396641;19;1418;-63
2023/08/23 11:50:01;;;;;;;;;;;;;;;24.17;63.99;100675.94;7400475;19;1428;-61
2023/08/23 11:52:33;;;;;;;;;;;;;;;24.08;64.25;100669.72;7399452;19;1369;-62
2023/08/23 11:55:03;;;;;;;;;;;;;;;24.18;63.39;100673.06;7400781;19;1124;-63
2023/08/23 11:57:33;;;;;;;;;;;;;;;24.03;63.84;100672.09;7401204;19;1705;-68
2023/08/23 12:00:02;;;;;;;;;;;;;;;24.10;63.18;100686.59;7399226;19;1314;-64
2023/08/23 12:02:30;;;;;;;;;;;;;;;24.11;63.28;100680.16;7400179;19;1880;-65
2023/08/23 12:05:00;;;;;;;;;;;;;;;23.95;63.66;100655.88;7395850;19;1361;-64
2023/08/23 12:07:29;;;;;;;;;;;;;;;24.08;62.99;100653.50;7397892;19;1707;-65
2023/08/23 12:10:00;;;;;;;;;;;;;;;24.00;62.87;100651.66;7399423;19;1691;-64
2023/08/23 12:12:28;;;;;;;;;;;;;;;23.98;62.60;100642.06;7401003;19;1350;-64
2023/08/23 12:14:57;;;;;;;;;;;;;;;24.10;62.22;100662.28;7401153;19;1051;-65
2023/08/23 12:17:25;;;;;;;;;;;;;;;24.14;61.47;100639.31;7400430;19;1481;-64
2023/08/23 12:19:53;;;;;;;;;;;;;;;24.23;61.48;100634.72;7399666;19;1891;-64
2023/08/23 12:22:21;;;;;;;;;;;;;;;24.14;61.56;100633.91;7397559;19;1880;-64
2023/08/23 12:24:49;;;;;;;;;;;;;;;24.17;61.29;100638.13;7395990;19;1557;-64
2023/08/23 12:27:20;;;;;;;;;;;;;;;24.13;61.36;100629.53;7394497;19;1698;-64
2023/08/23 12:29:49;;;;;;;;;;;;;;;24.06;61.45;100633.94;7396267;19;1319;-65
2023/08/23 12:32:17;;;;;;;;;;;;;;;24.13;60.92;100626.84;7395639;19;1765;-64
2023/08/23 12:34:45;;;;;;;;;;;;;;;24.10;61.16;100634.44;7396409;19;1016;-65
2023/08/23 12:37:13;;;;;;;;;;;;;;;24.02;61.13;100614.53;7396303;19;1476;-64
2023/08/23 12:39:42;;;;;;;;;;;;;;;24.12;61.17;100638.66;7400075;19;1762;-65
2023/08/23 12:42:10;;;;;;;;;;;;;;;24.07;60.85;100630.19;7400252;19;1440;-64
2023/08/23 12:44:41;;;;;;;;;;;;;;;24.12;60.71;100629.72;7397039;19;1837;-64
2023/08/23 12:47:09;;;;;;;;;;;;;;;24.17;60.33;100620.06;7398778;19;1753;-64
2023/08/23 12:49:37;;;;;;;;;;;;;;;24.26;60.05;100612.78;7399210;19;1690;-65
2023/08/23 12:52:06;;;;;;;;;;;;;;;24.13;60.49;100617.88;7398870;19;994;-64
2023/08/23 12:54:34;;;;;;;;;;;;;;;24.21;60.16;100616.00;7395087;19;1927;-64
2023/08/23 12:57:02;;;;;;;;;;;;;;;24.17;60.31;100620.06;7395647;19;1408;-65